Bergem, Luxembourg
Current Conditions -  °F | °C
As of 1:20 AM on Tuesday 25 Nov 2014 (Local Time) from ELLX Reporting Station
NA  
Wind Chill: 39°   Ceiling: NA
Heat Index: 43°   Visibility: 6mi
Dew Point: 37°   Wind: 7mph
Humidity: 81%   Direction: 60°ENE
Pressure: 30.24"   Gusts: NA
Location:  49.53°N, 6.04°E
Report Text: ELLX 250020Z AUTO 06006KT 030V100 9999 NDV 06/03 Q1024
Loading
Personal Weather Stations






























Interactive Weather Map New forecast layout! Learn more

10-Day Weather Forecast

Advertisements
Track Severe Weather on mobile